Terminal Aerodrome Forecast
Issued by NWS Shreveport, LA

Home | Current Version | Previous Version | Text Only | Print | Product List | Glossary On
Versions: 1 2 3 4 5 6 7 8 9 10 11 12 13 14 15 16 17
000
FTUS44 KSHV 261154
TAFSHV
TAF
KSHV 261154Z 2612/2712 15007KT P6SM BKN250
      TEMPO 2613/2616 BKN015
     FM261600 16011KT P6SM BKN035 OVC250
     FM262000 18011KT P6SM VCTS BKN050CB OVC100
     FM270300 16008KT P6SM VCTS BKN035CB OVC080
     FM271000 16008KT P6SM VCTS BKN015 BKN040CB=

USA.gov is the U.S. government's official web portal to all federal, state and local government web resources and services.